createdAt,value
2019-05-07T00:01:11.759Z,3.47
2019-05-07T00:03:42.185Z,3.42
2019-05-07T00:06:12.386Z,3.38
2019-05-07T00:08:44.698Z,3.35
2019-05-07T00:11:12.861Z,3.27
2019-05-07T00:13:44.127Z,3.24
2019-05-07T00:16:12.950Z,3.15
2019-05-07T00:18:42.912Z,3.09
2019-05-07T00:21:12.668Z,3.06
2019-05-07T00:23:43.270Z,3.04
2019-05-07T00:26:13.220Z,2.98
2019-05-07T00:28:43.423Z,2.92
2019-05-07T00:31:12.558Z,2.86
2019-05-07T00:33:43.263Z,2.82
2019-05-07T00:36:32.374Z,2.76
2019-05-07T00:39:19.137Z,2.73
2019-05-07T00:41:57.880Z,2.70
2019-05-07T00:44:26.914Z,2.61
2019-05-07T00:46:55.920Z,2.60
2019-05-07T00:49:26.745Z,2.56
2019-05-07T00:51:55.747Z,2.47
2019-05-07T00:54:24.794Z,2.44
2019-05-07T00:56:54.691Z,2.44
2019-05-07T00:59:24.733Z,2.43
2019-05-07T01:01:54.723Z,2.42
2019-05-07T01:04:24.753Z,2.42
2019-05-07T01:06:54.727Z,2.41
2019-05-07T01:09:24.685Z,2.46
2019-05-07T01:11:54.665Z,2.51
2019-05-07T01:14:24.731Z,2.60
2019-05-07T01:16:54.695Z,2.67
2019-05-07T01:19:24.767Z,2.73
2019-05-07T01:21:54.731Z,2.84
2019-05-07T01:24:24.772Z,2.92
2019-05-07T01:26:53.817Z,3.02
2019-05-07T01:29:23.190Z,3.18
2019-05-07T01:31:58.331Z,3.29
2019-05-07T01:34:52.488Z,3.36
2019-05-07T01:37:23.096Z,3.39
2019-05-07T01:39:52.909Z,3.42
2019-05-07T01:42:22.323Z,3.42
2019-05-07T01:44:52.820Z,3.40
2019-05-07T01:47:23.785Z,3.39
2019-05-07T01:49:55.121Z,3.39
2019-05-07T01:52:24.003Z,3.31
2019-05-07T01:54:53.313Z,3.31
2019-05-07T01:57:23.175Z,3.31
2019-05-07T01:59:52.906Z,3.34
2019-05-07T02:02:36.013Z,3.35
2019-05-07T02:05:33.406Z,3.35
2019-05-07T02:08:04.889Z,3.35
2019-05-07T02:10:44.731Z,3.36
2019-05-07T02:13:13.732Z,3.37
2019-05-07T02:15:56.592Z,3.33
2019-05-07T02:18:13.546Z,3.34
2019-05-07T02:20:42.741Z,3.35
2019-05-07T02:23:12.831Z,3.34
2019-05-07T02:25:42.155Z,3.34
2019-05-07T02:28:12.846Z,3.32
2019-05-07T02:30:44.380Z,3.30
2019-05-07T02:33:13.823Z,3.30
2019-05-07T02:35:44.013Z,3.31
2019-05-07T02:38:23.029Z,3.29
2019-05-07T02:41:02.705Z,3.29
2019-05-07T02:43:33.469Z,3.29
2019-05-07T02:46:22.355Z,3.24
2019-05-07T02:48:45.920Z,3.24
2019-05-07T02:51:24.419Z,3.21
2019-05-07T02:54:13.405Z,3.18
2019-05-07T02:56:43.377Z,3.21
2019-05-07T02:59:13.766Z,3.22
2019-05-07T03:01:43.412Z,3.32
2019-05-07T03:04:13.055Z,3.67
2019-05-07T03:06:44.166Z,3.87
2019-05-07T03:09:14.555Z,3.91
2019-05-07T03:11:43.723Z,3.92
2019-05-07T03:14:14.010Z,3.87
2019-05-07T03:16:48.911Z,3.78
2019-05-07T03:19:14.787Z,3.74
2019-05-07T03:21:56.736Z,3.72
2019-05-07T03:24:52.959Z,3.68
2019-05-07T03:27:23.448Z,3.63
2019-05-07T03:30:04.331Z,3.61
2019-05-07T03:32:46.951Z,3.59
2019-05-07T03:35:38.113Z,3.57
2019-05-07T03:38:07.348Z,3.57
2019-05-07T03:40:37.308Z,3.56
2019-05-07T03:43:06.622Z,3.55
2019-05-07T03:45:54.158Z,3.56
2019-05-07T03:48:24.949Z,3.64
2019-05-07T03:50:54.010Z,3.71
2019-05-07T03:53:23.597Z,3.79
2019-05-07T03:55:53.808Z,3.85
2019-05-07T03:58:23.867Z,3.85
2019-05-07T04:00:53.742Z,3.88
2019-05-07T04:03:24.529Z,3.86
2019-05-07T04:05:53.880Z,3.92
2019-05-07T04:08:23.881Z,3.94
2019-05-07T04:10:53.982Z,3.94
2019-05-07T04:13:24.250Z,3.95
2019-05-07T04:15:53.454Z,3.99
2019-05-07T04:18:23.818Z,4.07
2019-05-07T04:20:54.052Z,4.33
2019-05-07T04:23:23.711Z,4.69
2019-05-07T04:26:19.102Z,4.87
2019-05-07T04:29:05.594Z,4.78
2019-05-07T04:31:37.100Z,4.76
2019-05-07T04:34:13.397Z,4.84
2019-05-07T04:36:45.669Z,5.83
2019-05-07T04:39:14.701Z,6.34
2019-05-07T04:41:43.788Z,6.87
2019-05-07T04:44:14.032Z,7.88
2019-05-07T04:46:47.771Z,8.95
2019-05-07T04:49:14.217Z,9.99
2019-05-07T04:51:55.208Z,11.02
2019-05-07T04:54:24.143Z,11.69
2019-05-07T04:56:53.388Z,12.67
2019-05-07T04:59:23.768Z,13.29
2019-05-07T05:01:59.676Z,13.65
2019-05-07T05:04:31.508Z,13.97
2019-05-07T05:07:01.998Z,13.87
2019-05-07T05:09:32.936Z,14.30
2019-05-07T05:12:02.699Z,14.39
2019-05-07T05:14:33.723Z,14.30
2019-05-07T05:17:03.092Z,14.48
2019-05-07T05:19:32.452Z,14.57
2019-05-07T05:22:26.508Z,15.02
2019-05-07T05:25:32.266Z,14.93
2019-05-07T05:28:02.020Z,15.29
2019-05-07T05:30:38.133Z,15.87
2019-05-07T05:33:07.176Z,15.99
2019-05-07T05:35:36.508Z,16.37
2019-05-07T05:38:06.053Z,16.40
2019-05-07T05:40:35.072Z,17.06
2019-05-07T05:43:13.925Z,17.42
2019-05-07T05:45:44.257Z,17.79
2019-05-07T05:48:13.759Z,17.84
2019-05-07T05:51:05.030Z,18.14
2019-05-07T05:53:53.022Z,17.35
2019-05-07T05:56:28.255Z,15.86
2019-05-07T05:59:37.061Z,14.64
2019-05-07T06:02:22.786Z,13.81
2019-05-07T06:05:12.607Z,14.90
2019-05-07T06:07:47.558Z,16.12
2019-05-07T06:10:38.496Z,16.69
2019-05-07T06:13:23.084Z,17.52
2019-05-07T06:16:08.544Z,17.67
2019-05-07T06:18:44.862Z,18.03
2019-05-07T06:21:24.339Z,18.37
2019-05-07T06:23:56.269Z,18.75
2019-05-07T06:26:25.346Z,19.22
2019-05-07T06:28:54.721Z,19.16
2019-05-07T06:31:23.772Z,19.68
2019-05-07T06:33:52.781Z,20.35
2019-05-07T06:36:22.077Z,20.13
2019-05-07T06:38:57.855Z,20.43
2019-05-07T06:41:44.825Z,19.23
2019-05-07T06:44:18.125Z,17.87
2019-05-07T06:46:47.176Z,17.31
2019-05-07T06:49:16.199Z,15.39
2019-05-07T06:51:47.758Z,13.58
2019-05-07T06:54:15.997Z,13.58
2019-05-07T06:56:45.424Z,12.97
2019-05-07T06:59:23.261Z,11.79
2019-05-07T07:02:22.568Z,10.91
2019-05-07T07:04:57.860Z,10.10
2019-05-07T07:07:36.575Z,8.18
2019-05-07T07:10:22.649Z,7.65
2019-05-07T07:12:53.075Z,7.49
2019-05-07T07:15:23.179Z,7.41
2019-05-07T07:17:52.632Z,7.51
2019-05-07T07:20:21.947Z,7.80
2019-05-07T07:22:52.057Z,9.02
2019-05-07T07:25:22.958Z,9.90
2019-05-07T07:27:52.179Z,10.24
2019-05-07T07:30:42.030Z,10.95
2019-05-07T07:33:12.184Z,11.20
2019-05-07T07:35:42.853Z,11.82
2019-05-07T07:38:30.222Z,12.10
2019-05-07T07:41:18.225Z,11.68
2019-05-07T07:43:47.269Z,12.25
2019-05-07T07:46:16.717Z,11.73
2019-05-07T07:48:45.882Z,11.07
2019-05-07T07:51:15.005Z,10.33
2019-05-07T07:53:44.124Z,10.19
2019-05-07T07:56:49.042Z,9.92
2019-05-07T07:59:22.031Z,10.36
2019-05-07T08:02:02.918Z,10.50
2019-05-07T08:04:32.174Z,10.78
2019-05-07T08:07:04.494Z,10.44
2019-05-07T08:09:34.939Z,9.55
2019-05-07T08:12:04.616Z,9.20
2019-05-07T08:14:33.680Z,8.64
2019-05-07T08:17:04.617Z,8.22
2019-05-07T08:19:33.678Z,8.08
2019-05-07T08:22:03.174Z,8.68
2019-05-07T08:24:32.393Z,9.28
2019-05-07T08:27:02.381Z,9.60
2019-05-07T08:29:32.535Z,10.10
2019-05-07T08:32:22.122Z,10.82
2019-05-07T08:34:55.471Z,11.23
2019-05-07T08:37:24.640Z,11.31
2019-05-07T08:39:53.675Z,10.84
2019-05-07T08:42:22.992Z,10.59
2019-05-07T08:45:00.034Z,10.53
2019-05-07T08:47:35.784Z,11.22
2019-05-07T08:50:05.169Z,11.48
2019-05-07T08:52:34.181Z,11.79
2019-05-07T08:55:03.229Z,11.45
2019-05-07T08:57:32.238Z,10.99
2019-05-07T09:00:04.541Z,11.24
2019-05-07T09:02:32.702Z,11.73
2019-05-07T09:05:03.001Z,12.13
2019-05-07T09:12:53.848Z,12.02
2019-05-07T09:15:23.058Z,11.57
2019-05-07T09:17:52.708Z,11.97
2019-05-07T09:20:22.851Z,11.82
2019-05-07T09:22:52.030Z,11.59
2019-05-07T09:25:22.253Z,12.17
2019-05-07T09:27:52.780Z,12.66
2019-05-07T09:30:56.584Z,12.84
2019-05-07T09:33:35.260Z,13.18
2019-05-07T09:36:05.449Z,13.53
2019-05-07T09:38:34.463Z,13.52
2019-05-07T09:41:03.474Z,12.85
2019-05-07T09:43:32.841Z,12.41
2019-05-07T09:46:02.724Z,12.31
2019-05-07T09:48:33.836Z,12.34
2019-05-07T09:51:02.692Z,11.78
2019-05-07T09:53:32.127Z,11.54
2019-05-07T09:56:02.130Z,11.26
2019-05-07T09:58:36.730Z,11.71
2019-05-07T10:01:02.474Z,12.24
2019-05-07T10:03:32.420Z,12.44
2019-05-07T10:06:02.409Z,12.99
2019-05-07T10:08:32.258Z,13.20
2019-05-07T10:11:02.730Z,12.20
2019-05-07T10:13:42.571Z,11.27
2019-05-07T10:16:13.037Z,11.11
2019-05-07T10:18:42.721Z,10.98
2019-05-07T10:21:12.758Z,10.92
2019-05-07T10:23:42.055Z,11.12
2019-05-07T10:26:12.154Z,11.08
2019-05-07T10:28:42.495Z,11.28
2019-05-07T10:31:11.647Z,12.02
2019-05-07T10:33:42.189Z,12.85
2019-05-07T10:36:12.507Z,13.33
2019-05-07T10:38:41.643Z,13.76
2019-05-07T10:41:12.131Z,13.57
2019-05-07T10:43:42.849Z,13.76
2019-05-07T10:46:31.931Z,13.28
2019-05-07T10:49:14.433Z,13.47
2019-05-07T10:51:43.474Z,14.01
2019-05-07T10:54:12.694Z,14.24
2019-05-07T10:56:41.979Z,12.80
2019-05-07T10:59:12.186Z,12.92
2019-05-07T11:01:46.865Z,13.08
2019-05-07T11:04:15.914Z,13.43
2019-05-07T11:06:44.916Z,13.05
2019-05-07T11:09:13.979Z,12.65
2019-05-07T11:11:42.991Z,12.23
2019-05-07T11:14:12.352Z,11.62
2019-05-07T11:16:52.165Z,11.34
2019-05-07T11:19:22.094Z,11.55
2019-05-07T11:21:52.133Z,12.08
2019-05-07T11:24:21.353Z,12.78
2019-05-07T11:26:50.457Z,13.23
2019-05-07T11:29:19.487Z,13.52
2019-05-07T11:31:48.852Z,13.73
2019-05-07T11:34:17.903Z,13.37
2019-05-07T11:36:46.969Z,12.75
2019-05-07T11:39:15.978Z,12.73
2019-05-07T11:42:08.080Z,12.85
2019-05-07T11:44:37.096Z,12.94
2019-05-07T11:47:24.455Z,13.07
2019-05-07T11:50:11.963Z,12.03
2019-05-07T11:52:45.573Z,11.18
2019-05-07T11:55:14.785Z,11.06
2019-05-07T11:57:44.506Z,11.65
2019-05-07T12:00:23.865Z,11.65
2019-05-07T12:02:52.992Z,12.13
2019-05-07T12:05:22.690Z,12.44
2019-05-07T12:07:51.977Z,12.40
2019-05-07T12:10:22.247Z,13.21
2019-05-07T12:12:52.110Z,13.68
2019-05-07T12:15:21.720Z,12.72
2019-05-07T12:17:52.135Z,12.69
2019-05-07T12:20:21.913Z,12.13
2019-05-07T12:22:52.143Z,12.13
2019-05-07T12:25:21.825Z,11.87
2019-05-07T12:27:52.459Z,12.09
2019-05-07T12:30:43.226Z,12.55
2019-05-07T12:33:22.656Z,12.74
2019-05-07T12:35:52.494Z,12.72
2019-05-07T12:38:22.055Z,11.78
2019-05-07T12:40:52.381Z,12.26
2019-05-07T12:43:21.568Z,11.91
2019-05-07T12:45:52.485Z,11.83
2019-05-07T12:48:21.834Z,11.90
2019-05-07T12:50:52.276Z,12.50
2019-05-07T12:53:42.419Z,12.70
2019-05-07T12:56:11.543Z,12.57
2019-05-07T12:58:40.584Z,13.02
2019-05-07T13:01:17.943Z,13.09
2019-05-07T13:04:04.643Z,13.33
2019-05-07T13:06:37.009Z,13.35
2019-05-07T13:09:06.968Z,13.51
2019-05-07T13:11:36.074Z,13.77
2019-05-07T13:14:05.178Z,13.04
2019-05-07T13:16:34.455Z,13.60
2019-05-07T13:19:03.509Z,13.74
2019-05-07T13:21:46.491Z,13.49
2019-05-07T13:24:03.339Z,13.70
2019-05-07T13:26:32.447Z,13.78
2019-05-07T13:29:02.494Z,13.73
2019-05-07T13:31:33.069Z,13.56
2019-05-07T13:34:03.227Z,13.81
2019-05-07T13:36:32.685Z,13.82
2019-05-07T13:39:13.181Z,13.19
2019-05-07T13:42:02.174Z,13.34
2019-05-07T13:44:52.752Z,13.23
2019-05-07T13:47:34.461Z,12.98
2019-05-07T13:50:03.632Z,12.36
2019-05-07T13:52:34.070Z,12.74
2019-05-07T13:55:03.172Z,13.00
2019-05-07T13:57:32.384Z,12.97
2019-05-07T14:00:02.404Z,12.96
2019-05-07T14:02:32.540Z,12.44
2019-05-07T14:05:01.959Z,12.91
2019-05-07T14:07:33.811Z,13.28
2019-05-07T14:10:03.027Z,13.42
2019-05-07T14:12:33.806Z,13.64
2019-05-07T14:15:02.971Z,13.71
2019-05-07T14:17:31.980Z,13.58
2019-05-07T14:20:01.856Z,13.58
2019-05-07T14:22:32.049Z,12.76
2019-05-07T14:25:01.160Z,12.25
2019-05-07T14:27:32.150Z,12.07
2019-05-07T14:30:02.717Z,12.40
2019-05-07T14:32:38.736Z,13.06
2019-05-07T14:35:28.545Z,13.33
2019-05-07T14:38:01.674Z,13.51
2019-05-07T14:40:32.371Z,13.46
2019-05-07T14:43:12.672Z,13.16
2019-05-07T14:45:42.172Z,13.45
2019-05-07T14:48:12.147Z,13.48
2019-05-07T14:50:42.002Z,13.19
2019-05-07T14:53:12.553Z,12.96
2019-05-07T14:55:41.926Z,12.82
2019-05-07T14:58:12.422Z,12.46
2019-05-07T15:00:42.740Z,12.44
2019-05-07T15:03:12.596Z,12.28
2019-05-07T15:05:42.384Z,12.17
2019-05-07T15:08:14.406Z,12.45
2019-05-07T15:10:42.613Z,12.77
2019-05-07T15:13:12.752Z,13.06
2019-05-07T15:15:42.122Z,12.74
2019-05-07T15:18:22.934Z,12.03
2019-05-07T15:20:52.562Z,11.95
2019-05-07T15:23:31.294Z,12.00
2019-05-07T15:26:04.286Z,12.14
2019-05-07T15:28:32.310Z,12.38
2019-05-07T15:31:12.570Z,12.60
2019-05-07T15:33:41.862Z,12.55
2019-05-07T15:36:11.993Z,12.45
2019-05-07T15:38:42.947Z,12.46
2019-05-07T15:41:12.337Z,12.62
2019-05-07T15:43:43.905Z,12.77
2019-05-07T15:46:12.353Z,12.53
2019-05-07T15:48:42.015Z,12.03
2019-05-07T15:51:11.924Z,11.68
2019-05-07T15:54:00.100Z,11.78
2019-05-07T15:56:29.173Z,11.93
2019-05-07T15:58:58.181Z,12.02
2019-05-07T16:01:27.192Z,12.03
2019-05-07T16:03:56.232Z,12.22
2019-05-07T16:06:25.238Z,11.99
2019-05-07T16:09:02.479Z,11.96
2019-05-07T16:11:32.565Z,11.44
2019-05-07T16:14:27.591Z,11.43
2019-05-07T16:17:06.891Z,11.70
2019-05-07T16:19:35.914Z,11.44
2019-05-07T16:22:09.737Z,11.29
2019-05-07T16:24:38.781Z,10.96
2019-05-07T16:27:07.793Z,10.86
2019-05-07T16:29:37.172Z,10.66
2019-05-07T16:32:06.224Z,10.75
2019-05-07T16:34:35.281Z,10.58
2019-05-07T16:37:07.342Z,10.84
2019-05-07T16:39:35.019Z,11.14
2019-05-07T16:42:04.113Z,11.32
2019-05-07T16:44:33.238Z,11.37
2019-05-07T16:47:02.809Z,11.46
2019-05-07T16:49:32.385Z,11.25
2019-05-07T16:52:02.725Z,11.17
2019-05-07T16:54:32.329Z,11.31
2019-05-07T16:57:23.977Z,11.34
2019-05-07T16:59:52.984Z,11.27
2019-05-07T17:02:25.732Z,11.08
2019-05-07T17:05:12.140Z,11.03
2019-05-07T17:07:46.324Z,10.95
2019-05-07T17:10:15.435Z,10.88
2019-05-07T17:12:45.884Z,10.72
2019-05-07T17:15:15.032Z,10.84
2019-05-07T17:17:44.093Z,10.88
2019-05-07T17:20:13.501Z,10.87
2019-05-07T17:22:42.875Z,10.83
2019-05-07T17:25:30.201Z,10.83
2019-05-07T17:27:59.268Z,10.78
2019-05-07T17:30:28.291Z,10.68
2019-05-07T17:32:57.335Z,10.38
2019-05-07T17:35:26.268Z,10.38
2019-05-07T17:38:06.123Z,10.39
2019-05-07T17:40:26.344Z,10.40
2019-05-07T17:42:55.661Z,10.39
2019-05-07T17:45:24.728Z,10.38
2019-05-07T17:47:53.729Z,10.38
2019-05-07T17:50:27.196Z,10.31
2019-05-07T17:52:56.221Z,10.27
2019-05-07T17:55:25.288Z,10.22
2019-05-07T17:57:54.523Z,10.12
2019-05-07T18:00:23.672Z,10.03
2019-05-07T18:03:10.703Z,9.97
2019-05-07T18:05:39.752Z,9.94
2019-05-07T18:08:08.813Z,9.85
2019-05-07T18:10:37.818Z,9.80
2019-05-07T18:13:08.165Z,9.66
2019-05-07T18:15:37.579Z,9.62
2019-05-07T18:18:07.788Z,9.57
2019-05-07T18:20:36.872Z,9.48
2019-05-07T18:23:08.699Z,9.46
2019-05-07T18:25:36.868Z,9.41
2019-05-07T18:28:05.867Z,9.37
2019-05-07T18:30:34.982Z,9.28
2019-05-07T18:33:33.568Z,9.22
2019-05-07T18:36:03.275Z,9.20
2019-05-07T18:38:33.158Z,9.03
2019-05-07T18:41:03.123Z,9.00
2019-05-07T18:43:33.389Z,8.95
2019-05-07T18:46:03.063Z,8.94
2019-05-07T18:48:33.168Z,8.95
2019-05-07T18:51:03.117Z,8.92
2019-05-07T18:53:33.156Z,8.86
2019-05-07T18:56:03.119Z,8.80
2019-05-07T18:58:33.205Z,8.70
2019-05-07T19:01:08.308Z,8.61
2019-05-07T19:03:37.311Z,8.49
2019-05-07T19:06:06.336Z,8.33
2019-05-07T19:08:35.718Z,8.32
2019-05-07T19:11:05.870Z,8.27
2019-05-07T19:13:34.960Z,8.25
2019-05-07T19:16:04.018Z,8.15
2019-05-07T19:18:33.175Z,8.15
2019-05-07T19:21:06.506Z,8.09
2019-05-07T19:23:34.018Z,8.03
2019-05-07T19:26:03.231Z,7.89
2019-05-07T19:28:33.915Z,7.97
2019-05-07T19:31:03.323Z,7.95
2019-05-07T19:33:33.414Z,7.92
2019-05-07T19:36:03.310Z,7.88
2019-05-07T19:38:33.344Z,7.89
2019-05-07T19:41:03.388Z,7.88
2019-05-07T19:43:35.942Z,7.89
2019-05-07T19:46:04.666Z,7.84
2019-05-07T19:48:33.629Z,7.85
2019-05-07T19:51:03.436Z,7.83
2019-05-07T19:53:33.333Z,7.82
2019-05-07T19:56:23.548Z,7.74
2019-05-07T19:58:52.868Z,7.77
2019-05-07T20:01:29.753Z,7.77
2019-05-07T20:03:58.816Z,7.78
2019-05-07T20:06:27.837Z,7.78
2019-05-07T20:09:09.059Z,7.79
2019-05-07T20:11:55.921Z,7.79
2019-05-07T20:14:24.966Z,7.79
2019-05-07T20:16:53.983Z,7.78
2019-05-07T20:19:23.194Z,7.78
2019-05-07T20:21:52.504Z,7.79
2019-05-07T20:24:22.039Z,7.79
2019-05-07T20:26:52.665Z,7.79
2019-05-07T20:29:22.863Z,7.83
2019-05-07T20:31:53.300Z,7.83
2019-05-07T20:34:22.434Z,7.86
2019-05-07T20:36:51.868Z,7.89
2019-05-07T20:39:23.139Z,7.93
2019-05-07T20:41:52.614Z,7.93
2019-05-07T20:44:21.863Z,7.92
2019-05-07T20:46:53.423Z,7.93
2019-05-07T20:49:22.582Z,7.95
2019-05-07T20:51:52.660Z,7.97
2019-05-07T20:54:46.539Z,7.99
2019-05-07T20:57:25.012Z,7.97
2019-05-07T20:59:54.015Z,7.96
2019-05-07T21:02:23.016Z,7.98
2019-05-07T21:04:52.104Z,7.99
2019-05-07T21:07:22.229Z,7.99
2019-05-07T21:09:52.973Z,7.98
2019-05-07T21:12:22.602Z,7.92
2019-05-07T21:14:52.481Z,7.91
2019-05-07T21:17:22.671Z,7.91
2019-05-07T21:19:51.928Z,7.89
2019-05-07T21:22:22.708Z,7.89
2019-05-07T21:24:53.255Z,7.89
2019-05-07T21:27:22.488Z,7.86
2019-05-07T21:29:52.781Z,7.84
2019-05-07T21:32:23.110Z,7.84
2019-05-07T21:34:52.806Z,7.83
2019-05-07T21:37:22.868Z,7.84
2019-05-07T21:39:53.122Z,7.81
2019-05-07T21:42:22.962Z,7.78
2019-05-07T21:44:52.756Z,7.78
2019-05-07T21:47:22.277Z,7.77
2019-05-07T21:49:54.875Z,7.77
2019-05-07T21:52:23.155Z,7.80
2019-05-07T21:55:12.760Z,7.80
2019-05-07T21:57:56.949Z,7.81
2019-05-07T22:00:43.724Z,7.80
2019-05-07T22:03:15.288Z,7.79
2019-05-07T22:05:44.471Z,7.78
2019-05-07T22:08:13.799Z,7.75
2019-05-07T22:10:42.847Z,7.76
2019-05-07T22:13:12.477Z,7.77
2019-05-07T22:15:42.266Z,7.75
2019-05-07T22:18:12.012Z,7.76
2019-05-07T22:20:42.668Z,7.75
2019-05-07T22:23:11.860Z,7.74
2019-05-07T22:25:42.194Z,7.74
2019-05-07T22:28:13.354Z,7.72
2019-05-07T22:30:53.296Z,7.72
2019-05-07T22:33:30.957Z,7.71
2019-05-07T22:36:01.780Z,7.73
2019-05-07T22:38:32.356Z,7.70
2019-05-07T22:41:02.176Z,7.63
2019-05-07T22:43:31.877Z,7.65
2019-05-07T22:46:01.098Z,7.66
2019-05-07T22:48:32.452Z,7.68
2019-05-07T22:51:02.740Z,7.66
2019-05-07T22:53:32.805Z,7.61
2019-05-07T22:56:03.186Z,7.61
2019-05-07T22:58:36.710Z,7.63
2019-05-07T23:01:08.032Z,7.62
2019-05-07T23:03:37.144Z,7.59
2019-05-07T23:06:09.039Z,7.53
2019-05-07T23:08:42.358Z,7.55
2019-05-07T23:11:12.225Z,7.57
2019-05-07T23:13:42.788Z,7.53
2019-05-07T23:16:12.720Z,7.47
2019-05-07T23:18:42.890Z,7.35
2019-05-07T23:21:12.218Z,7.31
2019-05-07T23:23:42.215Z,7.33
2019-05-07T23:26:14.306Z,7.34
2019-05-07T23:28:42.155Z,7.36
2019-05-07T23:31:12.053Z,7.34
2019-05-07T23:33:41.710Z,7.29
2019-05-07T23:36:12.936Z,7.26
2019-05-07T23:38:42.644Z,7.19
2019-05-07T23:41:19.754Z,7.11
2019-05-07T23:44:06.981Z,7.09
2019-05-07T23:46:35.979Z,6.95
2019-05-07T23:49:05.008Z,6.89
2019-05-07T23:51:34.986Z,6.88
2019-05-07T23:54:05.004Z,6.84
2019-05-07T23:56:34.777Z,6.81
2019-05-07T23:59:04.846Z,6.80
